createdAt,value
2022-12-04T06:16:39.202Z,1012.75
2022-12-04T06:26:57.551Z,1012.83
2022-12-04T06:36:39.388Z,1012.83
2022-12-04T06:46:45.079Z,1012.71
2022-12-04T06:56:39.305Z,1012.75
2022-12-04T07:06:39.389Z,1012.80
2022-12-04T07:16:41.546Z,1013.04
2022-12-04T07:26:39.399Z,1013.05
2022-12-04T07:36:39.232Z,1013.12
2022-12-04T07:46:39.232Z,1013.04
2022-12-04T07:56:39.387Z,1012.85
2022-12-04T08:06:39.452Z,1013.03
2022-12-04T08:16:39.322Z,1013.01
2022-12-04T08:26:39.376Z,1012.99
2022-12-04T08:36:39.425Z,1012.97
2022-12-04T08:46:39.422Z,1013.09
2022-12-04T08:56:39.270Z,1012.93
2022-12-04T09:06:39.295Z,1012.94
2022-12-04T09:16:39.491Z,1012.86
2022-12-04T09:26:40.448Z,1012.94
2022-12-04T09:36:39.594Z,1012.89
2022-12-04T09:46:39.818Z,1012.95
2022-12-04T09:56:39.881Z,1012.95
2022-12-04T10:06:39.873Z,1012.82
2022-12-04T10:16:39.984Z,1012.75
2022-12-04T10:26:40.043Z,1012.76
2022-12-04T10:36:39.963Z,1012.64
2022-12-04T10:46:45.523Z,1012.70
2022-12-04T10:56:39.993Z,1012.65
2022-12-04T11:06:39.965Z,1012.61
2022-12-04T11:16:39.968Z,1012.44
2022-12-04T11:26:39.964Z,1012.43
2022-12-04T11:36:39.890Z,1012.19
2022-12-04T11:46:39.955Z,1012.17
2022-12-04T11:56:40.016Z,1011.98
2022-12-04T12:06:40.182Z,1011.92
2022-12-04T12:16:40.028Z,1011.78
2022-12-04T12:26:40.003Z,1011.81
2022-12-04T12:36:43.598Z,1011.88
2022-12-04T12:46:39.824Z,1011.77
2022-12-04T12:56:42.307Z,1011.55
2022-12-04T13:06:39.933Z,1011.46
2022-12-04T13:16:39.918Z,1011.46
2022-12-04T13:26:43.613Z,1011.26
2022-12-04T13:36:39.909Z,1011.44
2022-12-04T13:46:40.007Z,1011.32
2022-12-04T13:56:39.918Z,1011.20
2022-12-04T14:06:39.933Z,1011.11
2022-12-04T14:16:40.064Z,1010.91
2022-12-04T14:27:10.081Z,1010.69
2022-12-04T14:36:40.020Z,1010.61
2022-12-04T14:46:39.965Z,1010.63
2022-12-04T14:56:39.852Z,1010.70
2022-12-04T15:06:39.859Z,1010.67
2022-12-04T15:16:40.882Z,1010.62
2022-12-04T15:26:39.952Z,1010.64
2022-12-04T15:36:39.886Z,1010.64
2022-12-04T15:46:39.954Z,1010.68
2022-12-04T15:56:40.129Z,1010.62
2022-12-04T16:06:39.983Z,1010.68
2022-12-04T16:16:40.048Z,1010.88
2022-12-04T16:26:40.176Z,1010.81
2022-12-04T16:36:40.125Z,1010.89
2022-12-04T16:46:40.176Z,1010.94
2022-12-04T16:56:40.109Z,1011.02
2022-12-04T17:06:39.946Z,1011.08
2022-12-04T17:16:40.041Z,1011.05
2022-12-04T17:26:39.976Z,1011.03
2022-12-04T17:36:39.943Z,1011.00
2022-12-04T17:46:40.066Z,1010.91
2022-12-04T17:56:43.369Z,1011.11
2022-12-04T18:06:40.083Z,1011.03
2022-12-04T18:16:40.205Z,1010.98
2022-12-04T18:26:40.164Z,1010.97
2022-12-04T18:36:40.142Z,1010.94
2022-12-04T18:46:40.113Z,1010.85
2022-12-04T18:56:40.041Z,1010.83
2022-12-04T19:06:40.304Z,1010.76
2022-12-04T19:16:40.460Z,1010.81
